Time;durP1;ratioP1;P1;durP2;ratioP2;P2;SDS_P1;SDS_P2;PMS_P1;PMS_P2;Temp;Humidity;BMP_temperature;BMP_pressure;BME280_temperature;BME280_humidity;BME280_pressure;Samples;Min_cycle;Max_cycle;Signal;HPM_P1;HPM_P2
2022/06/12 00:00:56;;;;;;;3.58;2.17;;;;;;;18.65;95.99;99164.47;5052158;28;20111;-86
2022/06/12 00:03:28;;;;;;;3.22;1.98;;;;;;;18.51;95.36;99157.25;5051789;28;20171;-85
2022/06/12 00:05:56;;;;;;;2.13;1.42;;;;;;;18.77;95.15;99193.16;5051729;28;20486;-86
2022/06/12 00:08:24;;;;;;;2.53;1.73;;;;;;;18.75;95.35;99192.41;5051963;28;20025;-86
2022/06/12 00:10:52;;;;;;;2.42;1.48;;;;;;;18.60;95.77;99171.91;5051887;28;20033;-86
2022/06/12 00:13:25;;;;;;;1.98;1.25;;;;;;;18.71;95.82;99182.84;5052311;28;20025;-86
2022/06/12 00:15:51;;;;;;;1.90;1.20;;;;;;;18.73;94.98;99170.25;5051138;28;20040;-88
2022/06/12 00:18:17;;;;;;;2.75;1.35;;;;;;;18.94;94.17;99196.72;5051425;28;20025;-85
2022/06/12 00:20:42;;;;;;;1.58;1.42;;;;;;;18.71;94.52;99171.31;5048693;28;20029;-86
2022/06/12 00:23:12;;;;;;;2.13;1.63;;;;;;;18.84;92.60;99179.47;5050153;28;20037;-85
2022/06/12 00:25:38;;;;;;;2.65;1.58;;;;;;;18.79;94.18;99151.19;5050399;28;20466;-85
2022/06/12 00:28:05;;;;;;;1.60;1.50;;;;;;;18.78;92.80;99135.25;5049491;28;20032;-86
2022/06/12 00:30:31;;;;;;;1.42;1.00;;;;;;;18.72;93.99;99160.53;5047919;28;20048;-86
2022/06/12 00:32:57;;;;;;;4.03;1.75;;;;;;;18.87;92.97;99161.47;5050346;28;20067;-86
2022/06/12 00:35:27;;;;;;;1.95;1.40;;;;;;;18.98;92.82;99170.69;5048218;28;20033;-86
2022/06/12 00:37:53;;;;;;;2.80;1.55;;;;;;;19.08;92.06;99188.78;5049553;28;20033;-85
2022/06/12 00:40:20;;;;;;;2.28;1.23;;;;;;;19.03;91.76;99185.50;5029518;28;20048;-88
2022/06/12 00:42:50;;;;;;;1.27;1.13;;;;;;;18.98;92.05;99173.34;5049958;28;20033;-86
2022/06/12 00:45:34;;;;;;;1.58;1.17;;;;;;;19.02;92.93;99188.28;5049254;28;20124;-85
2022/06/12 00:48:04;;;;;;;2.05;1.10;;;;;;;19.00;93.30;99184.81;5033255;28;20044;-87
2022/06/12 00:50:30;;;;;;;2.78;1.30;;;;;;;19.00;93.22;99196.38;5049990;28;20036;-85
2022/06/12 00:52:57;;;;;;;2.10;1.38;;;;;;;18.74;94.09;99155.09;5050677;28;20052;-87
2022/06/12 00:55:38;;;;;;;2.42;1.10;;;;;;;18.65;93.69;99148.47;5050238;28;20073;-85
2022/06/12 00:58:08;;;;;;;2.28;1.75;;;;;;;18.55;94.82;99147.25;5050116;28;20113;-89
2022/06/12 01:00:34;;;;;;;2.15;1.50;;;;;;;18.70;94.84;99161.56;5048891;28;20033;-87
2022/06/12 01:03:00;;;;;;;1.42;1.02;;;;;;;18.60;93.63;99156.72;5048118;28;20037;-87
2022/06/12 01:08:12;;;;;;;1.45;1.27;;;;;;;18.71;93.83;99161.47;5049307;28;20036;-87
2022/06/12 01:10:41;;;;;;;1.73;1.17;;;;;;;18.66;92.52;99135.94;5049220;28;20127;-86
2022/06/12 01:13:16;;;;;;;1.00;0.80;;;;;;;18.89;93.04;99175.63;5049777;28;20025;-86
2022/06/12 01:15:46;;;;;;;1.63;0.88;;;;;;;18.73;92.61;99140.84;5049173;28;20032;-87
2022/06/12 01:18:15;;;;;;;4.43;1.10;;;;;;;18.90;92.69;99163.09;5049930;28;20036;-86
2022/06/12 01:21:10;;;;;;;2.78;1.75;;;;;;;18.87;91.18;99158.78;5048791;28;20070;-85
2022/06/12 01:24:09;;;;;;;1.52;0.90;;;;;;;18.88;92.60;99157.84;5026470;28;20063;-85
2022/06/12 01:27:06;;;;;;;2.20;1.20;;;;;;;18.86;92.08;99159.75;5048017;28;20498;-84
2022/06/12 01:29:31;;;;;;;2.03;1.20;;;;;;;18.78;93.21;99160.19;5046885;28;20040;-87
2022/06/12 01:32:15;;;;;;;1.63;1.10;;;;;;;18.95;92.49;99167.25;5047685;28;20044;-87
2022/06/12 01:35:02;;;;;;;2.03;1.30;;;;;;;18.92;92.46;99162.09;5048001;28;20037;-87
2022/06/12 01:37:50;;;;;;;3.08;1.42;;;;;;;18.72;92.32;99141.81;5047120;28;20039;-86
2022/06/12 01:40:18;;;;;;;1.63;1.08;;;;;;;18.89;92.64;99169.41;5048315;28;20391;-86
2022/06/12 01:42:51;;;;;;;1.27;0.70;;;;;;;18.69;92.11;99127.75;5049946;28;20035;-87
2022/06/12 01:45:41;;;;;;;1.10;0.70;;;;;;;18.92;92.47;99163.88;5049972;28;20029;-86
2022/06/12 01:48:28;;;;;;;0.98;0.90;;;;;;;18.68;92.92;99137.59;5049875;28;20103;-87
2022/06/12 01:51:12;;;;;;;1.48;1.23;;;;;;;19.00;91.93;99166.97;5049686;28;20509;-87
2022/06/12 01:54:15;;;;;;;1.13;0.90;;;;;;;18.88;91.93;99163.19;5048383;28;20128;-86
2022/06/12 01:57:19;;;;;;;1.60;1.42;;;;;;;18.72;92.51;99155.19;5048105;28;20514;-85
2022/06/12 01:59:54;;;;;;;1.17;0.87;;;;;;;18.70;92.26;99135.69;5034514;28;20055;-85
2022/06/12 02:02:33;;;;;;;0.73;0.63;;;;;;;18.92;92.46;99159.41;5047391;28;20064;-89
2022/06/12 02:05:22;;;;;;;0.73;0.68;;;;;;;18.75;92.45;99152.34;5047023;28;20041;-85
2022/06/12 02:07:50;;;;;;;1.20;0.60;;;;;;;19.03;91.24;99179.28;5047572;28;20036;-84
2022/06/12 02:10:27;;;;;;;0.77;0.73;;;;;;;19.05;91.78;99180.06;5046309;28;20047;-85
2022/06/12 02:13:11;;;;;;;1.42;1.08;;;;;;;19.01;91.90;99168.69;5048193;28;20106;-87
2022/06/12 02:16:06;;;;;;;2.38;1.15;;;;;;;19.01;91.50;99155.31;5048664;28;20033;-85
2022/06/12 02:18:31;;;;;;;;;;;;;;;19.00;91.87;99166.09;5047649;28;20049;-86
2022/06/12 02:21:23;;;;;;;2.65;1.85;;;;;;;18.76;92.07;99154.03;5047499;28;19962;-87
2022/06/12 02:24:10;;;;;;;1.33;0.82;;;;;;;18.96;92.08;99193.00;5027492;28;20049;-89
2022/06/12 02:27:04;;;;;;;1.65;1.00;;;;;;;19.10;91.48;99176.16;5046992;28;20041;-86
2022/06/12 02:29:37;;;;;;;1.65;1.35;;;;;;;19.02;91.12;99166.91;5038901;28;20530;-87
2022/06/12 02:32:10;;;;;;;1.52;1.17;;;;;;;18.71;91.83;99131.22;5028401;28;20056;-86
2022/06/12 02:34:41;;;;;;;4.40;1.52;;;;;;;18.78;92.10;99156.63;5049292;28;20091;-86
2022/06/12 02:37:27;;;;;;;1.85;0.88;;;;;;;18.91;92.98;99180.88;5049747;28;20044;-88
2022/06/12 02:40:02;;;;;;;1.65;1.42;;;;;;;18.69;94.42;99165.16;5048828;28;20032;-85
2022/06/12 02:42:34;;;;;;;2.20;1.60;;;;;;;18.90;94.48;99195.19;5050187;28;20124;-87
2022/06/12 02:45:09;;;;;;;2.03;1.20;;;;;;;18.87;95.65;99193.53;5049590;28;20468;-87
2022/06/12 02:47:38;;;;;;;1.50;1.13;;;;;;;18.50;96.49;99165.34;5050002;28;20037;-87
2022/06/12 02:50:06;;;;;;;1.60;1.08;;;;;;;18.73;98.53;99204.97;5050033;28;20041;-86
2022/06/12 02:52:41;;;;;;;3.03;1.95;;;;;;;18.75;99.52;99205.75;5049178;28;20059;-86
2022/06/12 02:55:30;;;;;;;1.67;1.02;;;;;;;18.74;99.39;99201.38;5049810;28;20032;-86
2022/06/12 02:58:02;;;;;;;1.60;1.50;;;;;;;18.39;100.00;99168.63;5049274;28;20044;-87
2022/06/12 03:00:41;;;;;;;2.90;2.63;;;;;;;18.40;100.00;99183.69;5049338;28;20025;-87
2022/06/12 03:03:06;;;;;;;1.42;1.17;;;;;;;18.50;100.00;99184.03;5048587;28;20047;-85
2022/06/12 03:05:36;;;;;;;2.58;1.38;;;;;;;18.49;100.00;99183.19;5048136;28;20108;-86
2022/06/12 03:08:06;;;;;;;1.90;1.08;;;;;;;18.21;100.00;99162.47;5048463;28;20025;-89
2022/06/12 03:10:38;;;;;;;2.13;1.35;;;;;;;18.06;100.00;99151.69;5048486;28;20033;-86
2022/06/12 03:13:06;;;;;;;1.58;1.27;;;;;;;18.42;100.00;99171.97;5047994;28;20049;-85
2022/06/12 03:15:40;;;;;;;2.15;1.38;;;;;;;18.20;100.00;99144.75;5048264;28;20025;-88
2022/06/12 03:18:11;;;;;;;1.38;1.20;;;;;;;18.36;100.00;99168.78;5049055;28;20046;-86
2022/06/12 03:20:57;;;;;;;1.70;1.27;;;;;;;18.47;100.00;99174.38;5048069;28;20033;-86
2022/06/12 03:23:42;;;;;;;2.20;0.98;;;;;;;18.00;100.00;99124.50;5050172;28;20048;-85
2022/06/12 03:26:15;;;;;;;2.30;1.63;;;;;;;18.25;100.00;99140.00;5049316;28;20481;-86
2022/06/12 03:28:52;;;;;;;1.88;1.33;;;;;;;18.35;100.00;99167.94;5033083;28;20503;-87
2022/06/12 03:31:30;;;;;;;1.55;1.30;;;;;;;18.56;100.00;99184.56;5051066;28;20099;-88
2022/06/12 03:34:05;;;;;;;2.22;1.20;;;;;;;18.49;100.00;99184.97;5053273;28;20057;-85
2022/06/12 03:36:38;;;;;;;1.63;1.10;;;;;;;18.35;100.00;99143.03;5051207;28;20134;-85
2022/06/12 03:39:06;;;;;;;1.60;1.23;;;;;;;18.47;100.00;99165.53;5051029;28;20036;-86
2022/06/12 03:41:41;;;;;;;1.40;1.30;;;;;;;18.52;100.00;99171.44;5050631;28;20029;-87
2022/06/12 03:44:18;;;;;;;1.23;0.90;;;;;;;18.51;100.00;99172.41;5048195;28;20048;-86
2022/06/12 03:47:16;;;;;;;1.60;1.25;;;;;;;18.36;100.00;99148.28;5051218;28;20116;-86
2022/06/12 03:49:44;;;;;;;1.40;1.23;;;;;;;18.39;100.00;99145.44;5050215;28;20033;-85
2022/06/12 03:52:25;;;;;;;2.83;1.67;;;;;;;18.64;100.00;99180.59;5050856;28;20124;-86
2022/06/12 03:57:50;;;;;;;1.60;1.02;;;;;;;18.60;100.00;99170.09;5051010;28;20033;-85
2022/06/12 03:58:10;;;;;;;1.95;1.30;;;;;;;18.39;100.00;99148.09;5017861;28;20040;-85
2022/06/12 04:00:39;;;;;;;2.33;1.60;;;;;;;18.45;100.00;99138.06;5051936;28;20031;-87
2022/06/12 04:03:11;;;;;;;2.38;1.63;;;;;;;18.42;100.00;99121.22;5051441;28;20496;-89
2022/06/12 04:05:48;;;;;;;3.50;2.20;;;;;;;18.64;100.00;99175.25;5052750;28;20056;-87
2022/06/12 04:08:37;;;;;;;2.75;1.90;;;;;;;18.36;100.00;99134.06;5052611;28;20029;-89
2022/06/12 04:11:03;;;;;;;1.73;1.17;;;;;;;18.56;100.00;99184.56;5051688;28;20049;-92
2022/06/12 04:13:29;;;;;;;1.38;1.00;;;;;;;18.22;100.00;99125.03;5052258;28;20028;-88
2022/06/12 04:16:33;;;;;;;2.78;1.70;;;;;;;18.55;100.00;99174.84;5052156;28;20033;-88
2022/06/12 04:19:02;;;;;;;1.42;1.02;;;;;;;18.32;100.00;99135.19;5043587;28;20037;-89
2022/06/12 04:21:37;;;;;;;2.15;1.55;;;;;;;18.37;100.00;99134.00;5032725;28;20029;-89
2022/06/12 04:24:21;;;;;;;2.03;1.13;;;;;;;18.61;100.00;99178.94;5045328;28;20037;-88
2022/06/12 04:26:52;;;;;;;1.88;1.45;;;;;;;18.62;100.00;99194.03;5052206;28;20059;-89
2022/06/12 04:29:31;;;;;;;3.67;1.75;;;;;;;18.70;100.00;99174.91;5051748;28;20098;-89
2022/06/12 04:32:00;;;;;;;1.85;1.30;;;;;;;18.74;100.00;99174.66;5051335;28;20037;-87
2022/06/12 04:34:31;;;;;;;3.75;2.53;;;;;;;19.03;100.00;99190.84;5051062;28;20041;-90
2022/06/12 04:37:30;;;;;;;3.80;1.15;;;;;;;18.50;100.00;99162.69;5050866;28;20800;-86
2022/06/12 04:39:58;;;;;;;1.88;1.35;;;;;;;18.60;100.00;99196.78;5017530;28;20095;-87
2022/06/12 04:42:32;;;;;;;2.08;1.88;;;;;;;18.62;100.00;99180.69;5052364;28;20029;-89
2022/06/12 04:45:00;;;;;;;2.28;1.73;;;;;;;18.76;100.00;99207.47;5052007;28;20518;-88
2022/06/12 04:47:28;;;;;;;2.60;1.77;;;;;;;18.88;100.00;99199.75;5052250;28;20029;-89
2022/06/12 04:49:54;;;;;;;2.97;1.42;;;;;;;18.72;100.00;99211.28;5051870;28;20064;-90
2022/06/12 04:52:21;;;;;;;1.20;1.00;;;;;;;18.71;100.00;99200.69;5051897;28;20090;-88
2022/06/12 04:54:47;;;;;;;3.22;1.52;;;;;;;19.07;100.00;99220.94;5051011;28;20089;-88
2022/06/12 04:57:16;;;;;;;3.10;2.20;;;;;;;18.63;100.00;99177.06;5051094;28;20045;-88
2022/06/12 04:59:42;;;;;;;1.83;1.20;;;;;;;18.86;100.00;99223.91;5051330;28;20111;-88
2022/06/12 05:02:07;;;;;;;6.88;3.25;;;;;;;18.94;100.00;99236.81;5051245;28;20513;-88
2022/06/12 05:04:35;;;;;;;2.53;1.77;;;;;;;18.92;100.00;99231.56;5051533;28;20037;-88
2022/06/12 05:07:01;;;;;;;2.22;1.50;;;;;;;18.64;100.00;99197.47;5050477;28;20037;-88
2022/06/12 05:09:31;;;;;;;4.13;2.65;;;;;;;18.81;100.00;99217.03;5050189;28;20032;-89
2022/06/12 05:11:57;;;;;;;3.33;2.80;;;;;;;18.77;100.00;99209.19;5048824;28;20418;-87
2022/06/12 05:14:22;;;;;;;2.53;2.00;;;;;;;18.73;100.00;99210.31;5035462;28;20416;-88
2022/06/12 05:16:58;;;;;;;2.25;1.20;;;;;;;18.70;100.00;99217.66;5029793;28;20048;-87
2022/06/12 05:19:27;;;;;;;3.33;1.50;;;;;;;18.76;100.00;99214.63;5032945;28;20052;-86
2022/06/12 05:21:53;;;;;;;3.25;2.08;;;;;;;18.78;100.00;99243.00;5047350;28;20041;-87
2022/06/12 05:24:18;;;;;;;4.43;2.78;;;;;;;18.72;100.00;99229.97;5042395;28;20090;-86
2022/06/12 05:26:46;;;;;;;1.73;1.45;;;;;;;18.51;100.00;99208.00;5049116;28;20055;-87
2022/06/12 05:29:20;;;;;;;3.28;2.60;;;;;;;18.66;100.00;99235.66;5050407;28;20028;-85
2022/06/12 05:31:46;;;;;;;1.77;1.67;;;;;;;18.76;100.00;99236.00;5046822;28;20051;-85
2022/06/12 05:34:14;;;;;;;1.50;1.10;;;;;;;18.95;100.00;99238.53;5030276;28;20036;-86
2022/06/12 05:36:50;;;;;;;2.17;1.63;;;;;;;18.85;100.00;99248.88;5030369;28;20601;-87
2022/06/12 05:39:16;;;;;;;3.22;2.35;;;;;;;18.81;100.00;99241.94;5040429;28;20071;-86
2022/06/12 05:41:41;;;;;;;2.75;1.70;;;;;;;18.72;100.00;99234.44;5050931;28;20072;-85
2022/06/12 05:44:07;;;;;;;2.25;1.52;;;;;;;18.64;100.00;99229.53;5048190;28;20487;-85
2022/06/12 05:46:33;;;;;;;2.03;1.83;;;;;;;18.86;100.00;99249.72;5049604;28;20079;-84
2022/06/12 05:48:58;;;;;;;3.42;2.17;;;;;;;18.82;100.00;99245.50;5049510;28;20029;-85
2022/06/12 05:51:24;;;;;;;1.90;1.45;;;;;;;18.68;100.00;99231.09;5049775;28;20419;-84
2022/06/12 05:53:50;;;;;;;2.47;1.55;;;;;;;18.90;100.00;99249.47;5049788;28;20036;-86
2022/06/12 05:56:18;;;;;;;2.63;2.05;;;;;;;18.81;100.00;99212.56;5049041;28;20453;-84
2022/06/12 05:58:45;;;;;;;3.45;1.88;;;;;;;18.99;100.00;99226.72;5032407;28;20152;-86
2022/06/12 06:01:13;;;;;;;4.22;1.95;;;;;;;18.96;100.00;99251.78;5048731;28;20037;-84
2022/06/12 06:03:39;;;;;;;2.88;2.20;;;;;;;18.64;100.00;99220.66;5048517;28;20384;-84
2022/06/12 06:06:09;;;;;;;3.35;2.58;;;;;;;18.78;100.00;99250.13;5050483;28;20056;-84
2022/06/12 06:08:35;;;;;;;3.47;2.00;;;;;;;19.05;100.00;99247.75;5050905;28;20044;-85
2022/06/12 06:11:01;;;;;;;2.30;1.65;;;;;;;19.01;100.00;99246.19;5049772;28;20029;-87
2022/06/12 06:13:26;;;;;;;1.75;1.25;;;;;;;19.26;99.70;99266.19;5049205;28;20037;-84
2022/06/12 06:15:52;;;;;;;3.25;2.45;;;;;;;19.23;99.25;99234.25;5036232;28;20036;-84
2022/06/12 06:18:19;;;;;;;2.60;1.77;;;;;;;19.39;99.00;99280.56;5029511;28;20033;-85
2022/06/12 06:20:47;;;;;;;3.63;2.30;;;;;;;19.44;98.05;99288.31;5030099;28;20030;-85
2022/06/12 06:23:13;;;;;;;1.83;1.42;;;;;;;19.41;98.15;99267.97;5037794;28;20111;-84
2022/06/12 06:25:40;;;;;;;1.75;1.50;;;;;;;19.56;96.62;99263.53;5049715;28;20445;-85
2022/06/12 06:28:09;;;;;;;2.47;1.80;;;;;;;19.58;96.82;99285.69;5050845;28;20115;-86
2022/06/12 06:30:43;;;;;;;4.50;2.30;;;;;;;19.62;97.06;99267.66;5050977;28;20052;-86
2022/06/12 06:33:27;;;;;;;3.67;1.85;;;;;;;19.57;97.04;99267.06;5051338;28;20548;-85
2022/06/12 06:35:53;;;;;;;3.17;2.25;;;;;;;19.61;97.69;99290.88;5050696;28;20505;-84
2022/06/12 06:38:19;;;;;;;3.10;1.88;;;;;;;19.59;98.29;99283.91;5049293;28;20021;-84
2022/06/12 06:40:44;;;;;;;2.45;1.67;;;;;;;19.47;98.62;99264.06;5049162;28;20033;-87
2022/06/12 06:43:10;;;;;;;2.80;1.63;;;;;;;19.71;98.10;99295.66;5049216;28;20036;-84
2022/06/12 06:48:22;;;;;;;2.97;1.92;;;;;;;19.63;98.33;99307.72;5048567;28;20474;-83
2022/06/12 06:50:48;;;;;;;3.90;2.55;;;;;;;19.56;99.20;99306.34;5049030;28;20094;-85
2022/06/12 06:53:14;;;;;;;3.50;2.33;;;;;;;19.58;98.57;99290.19;5036779;28;20037;-85
2022/06/12 06:55:41;;;;;;;3.10;2.20;;;;;;;19.65;98.77;99313.81;5029970;28;20032;-85
2022/06/12 06:58:13;;;;;;;3.53;2.25;;;;;;;19.68;98.64;99305.63;5032766;28;20029;-85
2022/06/12 07:00:39;;;;;;;2.38;1.42;;;;;;;19.90;98.69;99322.25;5033044;28;20454;-85
2022/06/12 07:03:06;;;;;;;4.45;2.58;;;;;;;19.61;98.25;99282.00;5034539;28;20112;-84
2022/06/12 07:05:32;;;;;;;3.15;2.28;;;;;;;19.86;100.00;99310.84;5052967;28;20085;-85
2022/06/12 07:07:58;;;;;;;3.13;2.63;;;;;;;19.90;100.00;99287.47;5051779;28;20546;-85
2022/06/12 07:10:25;;;;;;;3.47;2.17;;;;;;;20.29;100.00;99294.03;5050636;28;20025;-86
2022/06/12 07:12:51;;;;;;;2.72;2.42;;;;;;;20.67;100.00;99309.56;5048787;28;20044;-86
2022/06/12 07:15:18;;;;;;;4.50;2.75;;;;;;;21.42;100.00;99311.88;5031435;28;20077;-87
2022/06/12 07:17:45;;;;;;;5.30;3.17;;;;;;;21.90;93.45;99317.63;5041119;28;20029;-86
2022/06/12 07:20:13;;;;;;;3.83;2.63;;;;;;;21.70;92.11;99288.59;5038961;28;20033;-87
2022/06/12 07:22:39;;;;;;;3.05;2.13;;;;;;;21.62;93.13;99303.41;5050354;28;20048;-87
2022/06/12 07:25:05;;;;;;;3.17;2.80;;;;;;;21.98;90.51;99325.16;5047594;28;20063;-88
2022/06/12 07:27:31;;;;;;;3.40;2.08;;;;;;;21.93;91.06;99324.63;5047529;28;20024;-88
2022/06/12 07:29:57;;;;;;;2.78;1.75;;;;;;;21.68;87.77;99304.81;5049361;28;20532;-86
2022/06/12 07:32:22;;;;;;;4.03;2.72;;;;;;;21.73;88.97;99301.81;5050180;28;20028;-84
2022/06/12 07:34:48;;;;;;;5.13;3.05;;;;;;;21.69;87.65;99292.25;5049419;28;20036;-87
2022/06/12 07:37:14;;;;;;;4.35;1.88;;;;;;;21.70;88.20;99286.78;5049815;28;20120;-89
2022/06/12 07:39:40;;;;;;;2.35;1.30;;;;;;;21.57;85.21;99321.63;5048638;28;20033;-86
2022/06/12 07:42:06;;;;;;;2.65;1.90;;;;;;;21.29;87.85;99296.59;5032056;28;20514;-88
2022/06/12 07:44:34;;;;;;;3.17;1.58;;;;;;;21.41;87.10;99327.13;5051592;28;20033;-86
2022/06/12 07:47:01;;;;;;;1.95;1.42;;;;;;;21.28;87.64;99327.06;5031965;28;20495;-85
2022/06/12 07:49:29;;;;;;;3.13;2.40;;;;;;;21.21;89.28;99340.97;5032425;28;20065;-86
2022/06/12 07:51:56;;;;;;;2.97;1.90;;;;;;;20.98;88.92;99288.84;5051799;28;20041;-85
2022/06/12 07:54:22;;;;;;;1.90;1.02;;;;;;;21.24;88.14;99344.34;5048357;28;20071;-85
2022/06/12 07:56:48;;;;;;;1.65;1.23;;;;;;;20.70;89.07;99302.19;5052135;28;20032;-84
2022/06/12 07:59:14;;;;;;;1.73;1.08;;;;;;;20.93;89.44;99326.69;5051692;28;20029;-85
2022/06/12 08:01:40;;;;;;;4.40;2.38;;;;;;;20.92;89.26;99307.03;5050788;28;20758;-85
2022/06/12 08:04:07;;;;;;;2.03;1.40;;;;;;;21.09;90.64;99315.81;5050534;28;20055;-86
2022/06/12 08:06:33;;;;;;;3.50;1.65;;;;;;;21.18;90.66;99334.00;5050758;28;20040;-85
2022/06/12 08:08:59;;;;;;;3.25;1.73;;;;;;;20.99;88.63;99309.31;5050213;28;20083;-84
2022/06/12 08:11:26;;;;;;;2.08;1.77;;;;;;;20.98;91.40;99312.97;5050723;28;20043;-87
2022/06/12 08:13:52;;;;;;;3.53;2.00;;;;;;;21.06;89.63;99342.84;5050096;28;20043;-86
2022/06/12 08:16:18;;;;;;;2.33;1.42;;;;;;;21.27;91.67;99337.88;5051132;28;20032;-87
2022/06/12 08:18:44;;;;;;;3.28;2.05;;;;;;;20.91;91.16;99325.91;5049768;28;20037;-87
2022/06/12 08:21:12;;;;;;;2.65;1.45;;;;;;;20.97;91.49;99348.78;5049465;28;20059;-86
2022/06/12 08:23:50;;;;;;;2.22;1.65;;;;;;;20.80;93.25;99358.75;5039578;28;20029;-85
2022/06/12 08:26:24;;;;;;;5.75;1.83;;;;;;;20.86;93.09;99336.91;5031741;28;20454;-85
2022/06/12 08:29:02;;;;;;;3.50;2.15;;;;;;;20.75;92.90;99342.09;5051759;28;20115;-85
2022/06/12 08:31:37;;;;;;;3.15;1.40;;;;;;;20.86;93.68;99331.56;5049886;28;20036;-86
2022/06/12 08:34:06;;;;;;;1.85;1.30;;;;;;;20.75;96.41;99332.22;5048783;28;20083;-85
2022/06/12 08:36:33;;;;;;;1.73;1.20;;;;;;;21.02;95.27;99320.72;5049660;28;20589;-85
2022/06/12 08:38:59;;;;;;;3.30;2.42;;;;;;;21.13;94.83;99359.38;5050257;28;20029;-91
2022/06/12 08:41:44;;;;;;;2.75;2.28;;;;;;;21.25;95.07;99358.59;5050475;28;20087;-88
2022/06/12 08:44:15;;;;;;;2.97;1.42;;;;;;;21.19;96.73;99341.06;5048321;28;20033;-89
2022/06/12 08:47:01;;;;;;;3.45;2.42;;;;;;;21.24;94.17;99351.50;5048537;28;20033;-87
2022/06/12 08:49:43;;;;;;;2.10;1.35;;;;;;;21.04;94.26;99339.41;5019329;28;20585;-89
2022/06/12 08:52:20;;;;;;;2.65;1.30;;;;;;;21.11;95.12;99341.56;5031388;28;20033;-89
2022/06/12 08:55:12;;;;;;;2.75;1.42;;;;;;;21.06;93.14;99324.06;5030771;28;20060;-89
2022/06/12 08:57:47;;;;;;;4.30;1.13;;;;;;;20.81;93.60;99336.34;5033841;28;20048;-87
2022/06/12 09:00:19;;;;;;;2.42;1.48;;;;;;;20.96;95.53;99374.75;5050650;28;20039;-87
2022/06/12 09:02:46;;;;;;;2.00;1.42;;;;;;;21.14;94.31;99378.06;5050353;28;20044;-87
2022/06/12 09:05:17;;;;;;;3.20;1.95;;;;;;;20.93;92.91;99386.50;5050144;28;20048;-88
2022/06/12 09:07:54;;;;;;;2.55;1.83;;;;;;;20.63;94.69;99370.47;5050195;28;20032;-86
2022/06/12 09:10:25;;;;;;;2.40;1.60;;;;;;;20.69;95.12;99369.28;5048821;28;20024;-87
2022/06/12 09:12:57;;;;;;;1.52;1.27;;;;;;;20.67;93.43;99361.34;5049868;28;20036;-90
2022/06/12 09:15:32;;;;;;;2.25;1.67;;;;;;;20.62;94.83;99381.28;5050024;28;20120;-86
2022/06/12 09:18:16;;;;;;;4.63;1.50;;;;;;;20.37;96.46;99385.47;5050348;28;20048;-90
2022/06/12 09:20:56;;;;;;;2.35;1.45;;;;;;;20.38;95.26;99349.69;5049892;28;20040;-88
2022/06/12 09:23:32;;;;;;;1.60;1.40;;;;;;;20.42;95.42;99353.94;5050956;28;20063;-90
2022/06/12 09:25:57;;;;;;;0.90;0.90;;;;;;;20.68;94.60;99371.09;5051312;28;20040;-88
2022/06/12 09:28:43;;;;;;;2.92;1.92;;;;;;;20.80;94.22;99380.19;5051357;28;20025;-93
2022/06/12 09:31:32;;;;;;;3.67;2.03;;;;;;;20.88;95.02;99385.06;5047743;28;20049;-90
2022/06/12 09:34:12;;;;;;;2.88;1.60;;;;;;;20.76;93.50;99357.22;5048380;28;20028;-85
2022/06/12 09:36:56;;;;;;;1.50;1.25;;;;;;;21.06;93.45;99369.66;5049674;28;20091;-87
2022/06/12 09:39:46;;;;;;;2.35;1.40;;;;;;;21.24;93.10;99376.53;5049065;28;20128;-91
2022/06/12 09:42:22;;;;;;;1.85;1.23;;;;;;;21.58;92.89;99376.16;5029272;28;20507;-90
2022/06/12 09:45:07;;;;;;;3.08;2.00;;;;;;;21.80;92.42;99365.72;5029271;28;20033;-89
2022/06/12 09:47:43;;;;;;;2.40;1.52;;;;;;;21.63;88.29;99321.22;5028079;28;20471;-89
2022/06/12 09:50:37;;;;;;;3.03;1.85;;;;;;;21.87;88.23;99360.81;5031769;28;20033;-89
2022/06/12 09:53:19;;;;;;;2.28;1.58;;;;;;;22.08;85.45;99365.72;5049711;28;20020;-86
2022/06/12 09:55:58;;;;;;;3.55;2.15;;;;;;;21.56;87.12;99329.78;5050333;28;20061;-87
2022/06/12 09:58:36;;;;;;;1.88;1.67;;;;;;;21.97;85.22;99375.34;5049075;28;20040;-92
2022/06/12 10:01:04;;;;;;;2.47;1.67;;;;;;;21.91;85.17;99370.38;5047342;28;20036;-91
2022/06/12 10:03:59;;;;;;;2.33;1.45;;;;;;;21.61;82.60;99382.22;5048380;28;20047;-88
2022/06/12 10:06:36;;;;;;;7.90;1.92;;;;;;;21.50;82.46;99378.50;5047432;28;20036;-87
2022/06/12 10:09:05;;;;;;;2.50;1.52;;;;;;;21.44;85.33;99367.19;5049114;28;20025;-91
2022/06/12 10:11:40;;;;;;;2.90;1.30;;;;;;;21.57;86.09;99361.03;5049433;28;20041;-88
2022/06/12 10:14:14;;;;;;;4.55;1.58;;;;;;;21.86;82.40;99382.38;5047730;28;20542;-88
2022/06/12 10:16:45;;;;;;;2.75;1.83;;;;;;;21.70;82.98;99379.88;5049167;28;20039;-90
2022/06/12 10:19:37;;;;;;;1.77;1.05;;;;;;;21.57;84.23;99375.31;5031500;28;20063;-89
2022/06/12 10:22:13;;;;;;;2.53;1.70;;;;;;;21.33;84.03;99367.00;5029927;28;20129;-90
2022/06/12 10:24:39;;;;;;;2.63;2.03;;;;;;;21.23;84.08;99345.28;5028331;28;20136;-90
2022/06/12 10:27:09;;;;;;;3.03;1.55;;;;;;;21.23;84.65;99337.22;5029520;28;20139;-89
2022/06/12 10:29:50;;;;;;;4.00;1.77;;;;;;;21.59;85.69;99370.69;5049690;28;20041;-92
2022/06/12 10:32:19;;;;;;;2.47;1.42;;;;;;;21.49;84.82;99356.19;5042294;28;20067;-94
2022/06/12 10:34:46;;;;;;;3.25;1.58;;;;;;;21.24;85.76;99351.50;5045436;28;20025;-93
2022/06/12 10:37:22;;;;;;;3.17;2.13;;;;;;;21.51;86.55;99348.03;5048873;28;20521;-91
2022/06/12 10:40:13;;;;;;;2.70;2.10;;;;;;;21.69;86.73;99364.72;5047905;28;20029;-91
2022/06/12 10:42:39;;;;;;;2.10;1.40;;;;;;;21.45;85.77;99357.28;5048271;28;20037;-88
2022/06/12 10:45:05;;;;;;;1.77;1.48;;;;;;;21.30;86.88;99332.31;5048128;28;20855;-91
2022/06/12 10:47:42;;;;;;;1.48;1.13;;;;;;;21.50;85.98;99360.56;5045887;28;20039;-89
2022/06/12 10:50:16;;;;;;;2.92;1.83;;;;;;;21.55;84.43;99374.56;5046227;28;20132;-88
2022/06/12 10:53:13;;;;;;;2.33;1.48;;;;;;;21.60;85.35;99332.16;5046596;28;20025;-92
2022/06/12 10:56:00;;;;;;;3.65;2.22;;;;;;;21.98;84.56;99363.66;5047133;28;20037;-91
2022/06/12 10:59:18;;;;;;;4.10;2.20;;;;;;;21.82;83.50;99347.69;5046294;28;20033;-91
2022/06/12 11:01:46;;;;;;;2.13;1.52;;;;;;;21.46;84.13;99377.81;5020305;28;20896;-94
2022/06/12 11:04:23;;;;;;;4.45;1.98;;;;;;;21.41;86.74;99369.19;5046997;28;20048;-92
2022/06/12 11:07:14;;;;;;;3.72;2.30;;;;;;;21.56;87.11;99370.88;5027278;28;20495;-94
2022/06/12 11:09:49;;;;;;;4.20;1.92;;;;;;;21.46;89.91;99367.94;5014679;28;20469;-93
2022/06/12 11:12:43;;;;;;;2.80;1.83;;;;;;;21.27;88.53;99364.72;5028865;28;20841;-92
2022/06/12 11:15:15;;;;;;;2.05;1.52;;;;;;;21.28;89.71;99366.44;5046115;28;20513;-93
2022/06/12 11:18:14;;;;;;;2.28;1.73;;;;;;;21.10;89.08;99304.13;5049375;28;20036;-92
2022/06/12 11:20:43;;;;;;;4.20;2.67;;;;;;;21.07;89.55;99369.56;5049983;28;20170;-95
2022/06/12 11:23:17;;;;;;;2.95;1.85;;;;;;;21.07;90.46;99358.81;5046705;28;20033;-91
2022/06/12 11:25:52;;;;;;;2.83;1.77;;;;;;;21.12;90.58;99353.16;5046381;28;20479;-90
2022/06/12 11:28:48;;;;;;;4.15;2.42;;;;;;;21.51;88.33;99361.44;5046359;28;20033;-91
2022/06/12 11:31:47;;;;;;;3.55;1.45;;;;;;;21.57;87.76;99343.09;5045604;28;20057;-91
2022/06/12 11:35:05;;;;;;;3.13;1.92;;;;;;;21.61;86.59;99347.31;5025874;28;20051;-88
2022/06/12 11:38:06;;;;;;;1.90;1.17;;;;;;;21.79;85.31;99363.16;5010966;28;20044;-89
2022/06/12 11:40:46;;;;;;;2.90;1.55;;;;;;;21.62;83.42;99337.44;5044267;28;20037;-90
2022/06/12 11:43:14;;;;;;;1.65;1.35;;;;;;;21.61;81.63;99376.84;5039691;28;20028;-86
2022/06/12 11:46:07;;;;;;;2.47;1.40;;;;;;;21.61;82.75;99370.59;5046262;28;20064;-90
2022/06/12 11:48:44;;;;;;;3.13;1.70;;;;;;;21.38;80.97;99323.78;5049170;28;20025;-89
2022/06/12 11:51:27;;;;;;;2.03;1.33;;;;;;;21.64;81.53;99360.53;5042402;28;20094;-88
2022/06/12 11:54:15;;;;;;;1.75;1.30;;;;;;;21.67;82.94;99307.59;5049146;28;20040;-89
2022/06/12 11:56:51;;;;;;;5.72;2.55;;;;;;;21.90;82.22;99357.06;5049489;28;20060;-89
2022/06/12 11:59:37;;;;;;;3.85;2.47;;;;;;;21.41;82.15;99351.28;5049365;28;20450;-90
2022/06/12 12:02:08;;;;;;;2.88;1.75;;;;;;;21.39;81.50;99333.56;5030256;28;20041;-90
2022/06/12 12:04:49;;;;;;;1.95;1.40;;;;;;;21.51;82.44;99356.06;5048314;28;20056;-88
2022/06/12 12:07:48;;;;;;;1.33;0.90;;;;;;;21.21;81.69;99344.53;5047730;28;20121;-89
2022/06/12 12:10:39;;;;;;;3.45;1.58;;;;;;;20.99;84.27;99328.09;5047397;28;20457;-88